Karl Stefan Memorial Airport Norfolk US
ICAO: KOFK
IATA: OFK
Category: Medium
Scheduled Services: No

Elevation: 1573 ft
TransAlt. 18000 ft.

Airport Communications:
ASOS:119.025
COLUMBUS RDO:122.15
CTAF/UNICOM:122.7

KOFK Zoom In..

If you have problems with the map follow the link
https://www.worldairports.se/pages/airport.php?
ICAO=KOFK

Runways:

(A) RW 01 length 5800 ft width 100 ft
ILS 111.50 / hdg 14

(B) RW 14 length 5800 ft width 100 ft
---- / hdg 137

(C) RW 19 length 5800 ft width 100 ft
---- / hdg 194

(D) RW 32 length 5800 ft width 100 ft
---- / hdg 317

Location; KOFK
Day. 18 / Time. 21.56 Zulu
* Altimeter: 30.01
* Temperature: -08° c. -17.6°f.
* Wind from: 040° Speed 14 kn.
Dewpoint: -09° c.
Visibility: 3 Statute Miles.
Clouds: Overcast 800 ft.
Conditions: Mist.

KOFK 182156Z AUTO 04014KT 3SM BR OVC008 M08/M09 A3001 RMK AO2 UPB01E04 SLP189 P0000 I1000 T10831094


Wind From 040°
Speed 14 kn.

 
 
jpsmedia.com for Web Design worldairports.se 2019   terms of use